Piney Fork, Ohio
Current Conditions -  °F | °C
As of 5:53 PM on Thursday 23 Oct 2014 (Local Time) from KHLG Reporting Station
Few Clouds Few Clouds  
Wind Chill: 56°   Ceiling: Unl
Heat Index: 56°   Visibility: 10mi
Dew Point: 43°   Wind: 9mph
Humidity: 62%   Direction: 290°WNW
Pressure: 30.08"   Gusts: NA
Location:  40.27°N, 80.83°W
Report Text: KHLG 232153Z 29008KT 10SM FEW037 13/06 A3008 RMK AO2 SLP190 T01330061
Loading
Personal Weather Stations






























Interactive Weather Map
Tropical Storm Tracking
New forecast layout! Learn more

10-Day Weather Forecast

Advertisements
Track Severe Weather on mobile